Milk River, Canada
Current Conditions -  °F | °C
As of 4:56 AM on Friday 31 Oct 2014 (Local Time) from KCTB Reporting Station
Haze Haze  
Wind Chill: 26°   Ceiling: Unl
Heat Index: 31°   Visibility: 5mi
Dew Point: 30°   Wind: 5mph
Humidity: 96%   Direction: 90°E
Pressure: 29.88"   Gusts: NA
Location:  49.15°N, 112.09°W
Report Text: KCTB 311056Z AUTO 09004KT 5SM BR CLR M01/M01 A2988 RMK AO2 SLP130 T10061011
Loading
Personal Weather Stations






























Interactive Weather Map
Tropical Storm Tracking
New forecast layout! Learn more

10-Day Weather Forecast

Advertisements
Track Severe Weather on mobile